Coral Coast — WDF5120 — position and weather

sailwx.info

Track history (hours):
 
Tides and Currents Weather Stations Pressure Air Temp Water Temp Dewpoint Dewpoint Depression Visibility Wind Speed Wind Dir Waves Ship Positions

Coral Coast

More information available from US FCC via Universal Licensing System and Coast Guard Vessel Documentation Center.

Last reported at 2014-Sep-14 16:19 UTC. Time now 2014-Sep-17 03:36 UTC.
Position N 39°22' W 074°14'.

Length 70 m; draft 5.3 m.

Type: Tug. MMSI: 367459570.

Date/timePositionNaut miles runAvg speedWind from/ knotsBaromVisibWave heightAir tempDewpointWater temp
2014-Sep-14 16:19N 39°22' W 074°14'7 9.5
2014-Sep-14 15:33N 39°28' W 074°09'57 9.4
2014-Sep-14 09:26N 40°24' W 073°54'7 8.2
2014-Sep-14 08:33N 40°31' W 073°59'8 8.2
2014-Sep-14 07:32N 40°38' W 074°03'8 8.1
2014-Sep-14 06:33N 40°45' W 073°58'4 4.4
2014-Sep-14 05:33N 40°48' W 073°53'3 2.8
2014-Sep-14 04:33N 40°46' W 073°51'0 0.1
2014-Sep-14 03:33N 40°46' W 073°51'0 0.0
2014-Sep-14 02:32N 40°46' W 073°51'0 0.0
2014-Sep-14 01:19N 40°46' W 073°51'0 0.0
2014-Sep-13 19:25N 40°46' W 073°51'0 0.0
2014-Sep-13 18:28N 40°46' W 073°51'0 0.0
2014-Sep-13 17:33N 40°46' W 073°51'0 0.0
2014-Sep-13 16:33N 40°46' W 073°51'0 0.0
2014-Sep-13 15:32N 40°46' W 073°51'0 0.0
2014-Sep-13 14:31N 40°46' W 073°51'0 0.0
2014-Sep-13 13:33N 40°46' W 073°51'0 0.0
2014-Sep-13 12:33N 40°46' W 073°51'0 0.0
2014-Sep-13 11:29N 40°46' W 073°51'0 0.0
2014-Sep-13 10:33N 40°46' W 073°51'0 0.0
2014-Sep-13 09:30N 40°46' W 073°51'0 0.0
2014-Sep-13 08:26N 40°46' W 073°51'0 0.0
2014-Sep-13 07:30N 40°46' W 073°51'0 0.0
2014-Sep-13 06:29N 40°46' W 073°51'1 0.9
2014-Sep-13 05:33N 40°47' W 073°51'4 4.3
2014-Sep-13 04:33N 40°46' W 073°57'7 6.6
2014-Sep-13 03:33N 40°40' W 074°01'4 4.3
2014-Sep-13 02:33N 40°36' W 074°02'4 4.3
2014-Sep-13 01:33N 40°32' W 074°01'7 6.0
2014-Sep-13 00:24N 40°27' W 073°54'7 5.3
2014-Sep-12 23:06N 40°20' W 073°53'3 5.1
2014-Sep-12 22:30N 40°17' W 073°54'16 5.1
2014-Sep-12 19:24N 40°01' W 073°55'5 5.6
2014-Sep-12 18:32N 39°57' W 073°56'195 5.8
2014-Sep-11 08:33N 37°01' W 075°45'7 7.1
2014-Sep-11 07:33N 36°57' W 075°53'8 7.6
2014-Sep-11 06:31N 36°57' W 076°02'14 7.0
2014-Sep-11 04:33N 36°59' W 076°20'3 3.1
2014-Sep-11 03:32N 36°56' W 076°20'0 0.1
2014-Sep-11 02:31N 36°56' W 076°20'0 0.0
2014-Sep-11 01:33N 36°56' W 076°20'0 0.0
2014-Sep-11 00:31N 36°56' W 076°20'0 0.0
2014-Sep-10 23:33N 36°56' W 076°20'0 0.0
2014-Sep-10 22:33N 36°56' W 076°20'0 0.0
2014-Sep-10 21:28N 36°56' W 076°20'0 0.0
2014-Sep-10 20:28N 36°56' W 076°20'0 0.0
2014-Sep-10 19:29N 36°56' W 076°20'0 0.0
2014-Sep-10 18:25N 36°56' W 076°20'0 0.0
2014-Sep-10 17:30N 36°56' W 076°20'0 0.0
2014-Sep-10 16:24N 36°56' W 076°20'0 0.0
2014-Sep-10 15:06N 36°56' W 076°20'0 0.0
2014-Sep-10 14:33N 36°56' W 076°20'4 4.1
2014-Sep-10 13:33N 36°58' W 076°25'0 0.4
2014-Sep-10 12:28N 36°58' W 076°25'0 0.0
2014-Sep-10 11:33N 36°58' W 076°25'0 0.0
2014-Sep-10 10:33N 36°58' W 076°25'2 2.1
2014-Sep-10 09:31N 36°57' W 076°22'2 1.9
2014-Sep-10 08:12N 36°56' W 076°20'0 0.0
2014-Sep-10 07:33N 36°56' W 076°20'0 0.0
2014-Sep-10 06:33N 36°56' W 076°20'0 0.0
2014-Sep-10 05:31N 36°56' W 076°20'0 0.0
2014-Sep-10 04:20N 36°56' W 076°20'0 0.0
2014-Sep-10 03:25N 36°56' W 076°20'0 0.0
2014-Sep-10 02:31N 36°56' W 076°20'0 0.0
2014-Sep-10 01:31N 36°56' W 076°20'0 0.0
2014-Sep-10 00:30N 36°56' W 076°20'3 2.9
2014-Sep-09 23:32N 36°53' W 076°20'4 3.2
2014-Sep-09 22:20N 36°50' W 076°17'0 0.0
2014-Sep-09 21:32N 36°50' W 076°17'0 0.0
2014-Sep-09 20:33N 36°50' W 076°17'0 0.0
2014-Sep-09 19:30N 36°50' W 076°17'0 0.0
2014-Sep-09 18:12N 36°50' W 076°17'0 0.0
2014-Sep-09 17:33N 36°50' W 076°17'0 0.0
2014-Sep-09 16:33N 36°50' W 076°17'0 0.0
2014-Sep-09 15:23N 36°50' W 076°17'2 2.4
2014-Sep-09 14:31N 36°51' W 076°19'4 4.5
2014-Sep-09 13:33N 36°56' W 076°20'0 0.0
2014-Sep-09 12:33N 36°56' W 076°20'0 0.0
2014-Sep-09 11:28N 36°56' W 076°20'0 0.0
2014-Sep-09 10:33N 36°56' W 076°20'0 0.0
2014-Sep-09 09:33N 36°56' W 076°20'0 0.0
2014-Sep-09 08:32N 36°56' W 076°20'0 0.0
2014-Sep-09 07:30N 36°56' W 076°20'0 0.0
2014-Sep-09 06:32N 36°56' W 076°20'0 0.0
2014-Sep-09 05:33N 36°56' W 076°20'2 1.6
2014-Sep-09 04:33N 36°57' W 076°20'5 3.5
2014-Sep-09 03:15N 37°00' W 076°16'18 6.0
2014-Sep-09 00:19N 36°54' W 075°56'4 5.3
2014-Sep-08 23:31N 36°50' W 075°53'149 5.7
2014-Sep-07 21:28N 34°23' W 076°24'  
Track history (hours):
 
Tides and Currents Weather Stations Pressure Air Temp Water Temp Dewpoint Dewpoint Depression Visibility Wind Speed Wind Dir Waves Ship Positions

Coral Coast

More information available from US FCC via Universal Licensing System and Coast Guard Vessel Documentation Center.

Last reported at 2014-Sep-14 16:19 UTC. Time now 2014-Sep-17 03:36 UTC.
Position N 39°22' W 074°14'.

Length 70 m; draft 5.3 m.

Type: Tug. MMSI: 367459570.

Date/timePositionNaut miles runAvg speedWind from/ knotsBaromVisibWave heightAir tempDewpointWater temp
2014-Sep-14 16:19N 39°22' W 074°14'7 9.5
2014-Sep-14 15:33N 39°28' W 074°09'57 9.4
2014-Sep-14 09:26N 40°24' W 073°54'7 8.2
2014-Sep-14 08:33N 40°31' W 073°59'8 8.2
2014-Sep-14 07:32N 40°38' W 074°03'8 8.1
2014-Sep-14 06:33N 40°45' W 073°58'4 4.4
2014-Sep-14 05:33N 40°48' W 073°53'3 2.8
2014-Sep-14 04:33N 40°46' W 073°51'0 0.1
2014-Sep-14 03:33N 40°46' W 073°51'0 0.0
2014-Sep-14 02:32N 40°46' W 073°51'0 0.0
2014-Sep-14 01:19N 40°46' W 073°51'0 0.0
2014-Sep-13 19:25N 40°46' W 073°51'0 0.0
2014-Sep-13 18:28N 40°46' W 073°51'0 0.0
2014-Sep-13 17:33N 40°46' W 073°51'0 0.0
2014-Sep-13 16:33N 40°46' W 073°51'0 0.0
2014-Sep-13 15:32N 40°46' W 073°51'0 0.0
2014-Sep-13 14:31N 40°46' W 073°51'0 0.0
2014-Sep-13 13:33N 40°46' W 073°51'0 0.0
2014-Sep-13 12:33N 40°46' W 073°51'0 0.0
2014-Sep-13 11:29N 40°46' W 073°51'0 0.0
2014-Sep-13 10:33N 40°46' W 073°51'0 0.0
2014-Sep-13 09:30N 40°46' W 073°51'0 0.0
2014-Sep-13 08:26N 40°46' W 073°51'0 0.0
2014-Sep-13 07:30N 40°46' W 073°51'0 0.0
2014-Sep-13 06:29N 40°46' W 073°51'1 0.9
2014-Sep-13 05:33N 40°47' W 073°51'4 4.3
2014-Sep-13 04:33N 40°46' W 073°57'7 6.6
2014-Sep-13 03:33N 40°40' W 074°01'4 4.3
2014-Sep-13 02:33N 40°36' W 074°02'4 4.3
2014-Sep-13 01:33N 40°32' W 074°01'7 6.0
2014-Sep-13 00:24N 40°27' W 073°54'7 5.3
2014-Sep-12 23:06N 40°20' W 073°53'3 5.1
2014-Sep-12 22:30N 40°17' W 073°54'16 5.1
2014-Sep-12 19:24N 40°01' W 073°55'5 5.6
2014-Sep-12 18:32N 39°57' W 073°56'195 5.8
2014-Sep-11 08:33N 37°01' W 075°45'7 7.1
2014-Sep-11 07:33N 36°57' W 075°53'8 7.6
2014-Sep-11 06:31N 36°57' W 076°02'14 7.0
2014-Sep-11 04:33N 36°59' W 076°20'3 3.1
2014-Sep-11 03:32N 36°56' W 076°20'0 0.1
2014-Sep-11 02:31N 36°56' W 076°20'0 0.0
2014-Sep-11 01:33N 36°56' W 076°20'0 0.0
2014-Sep-11 00:31N 36°56' W 076°20'0 0.0
2014-Sep-10 23:33N 36°56' W 076°20'0 0.0
2014-Sep-10 22:33N 36°56' W 076°20'0 0.0
2014-Sep-10 21:28N 36°56' W 076°20'0 0.0
2014-Sep-10 20:28N 36°56' W 076°20'0 0.0
2014-Sep-10 19:29N 36°56' W 076°20'0 0.0
2014-Sep-10 18:25N 36°56' W 076°20'0 0.0
2014-Sep-10 17:30N 36°56' W 076°20'0 0.0
2014-Sep-10 16:24N 36°56' W 076°20'0 0.0
2014-Sep-10 15:06N 36°56' W 076°20'0 0.0
2014-Sep-10 14:33N 36°56' W 076°20'4 4.1
2014-Sep-10 13:33N 36°58' W 076°25'0 0.4
2014-Sep-10 12:28N 36°58' W 076°25'0 0.0
2014-Sep-10 11:33N 36°58' W 076°25'0 0.0
2014-Sep-10 10:33N 36°58' W 076°25'2 2.1
2014-Sep-10 09:31N 36°57' W 076°22'2 1.9
2014-Sep-10 08:12N 36°56' W 076°20'0 0.0
2014-Sep-10 07:33N 36°56' W 076°20'0 0.0
2014-Sep-10 06:33N 36°56' W 076°20'0 0.0
2014-Sep-10 05:31N 36°56' W 076°20'0 0.0
2014-Sep-10 04:20N 36°56' W 076°20'0 0.0
2014-Sep-10 03:25N 36°56' W 076°20'0 0.0
2014-Sep-10 02:31N 36°56' W 076°20'0 0.0
2014-Sep-10 01:31N 36°56' W 076°20'0 0.0
2014-Sep-10 00:30N 36°56' W 076°20'3 2.9
2014-Sep-09 23:32N 36°53' W 076°20'4 3.2
2014-Sep-09 22:20N 36°50' W 076°17'0 0.0
2014-Sep-09 21:32N 36°50' W 076°17'0 0.0
2014-Sep-09 20:33N 36°50' W 076°17'0 0.0
2014-Sep-09 19:30N 36°50' W 076°17'0 0.0
2014-Sep-09 18:12N 36°50' W 076°17'0 0.0
2014-Sep-09 17:33N 36°50' W 076°17'0 0.0
2014-Sep-09 16:33N 36°50' W 076°17'0 0.0
2014-Sep-09 15:23N 36°50' W 076°17'2 2.4
2014-Sep-09 14:31N 36°51' W 076°19'4 4.5
2014-Sep-09 13:33N 36°56' W 076°20'0 0.0
2014-Sep-09 12:33N 36°56' W 076°20'0 0.0
2014-Sep-09 11:28N 36°56' W 076°20'0 0.0
2014-Sep-09 10:33N 36°56' W 076°20'0 0.0
2014-Sep-09 09:33N 36°56' W 076°20'0 0.0
2014-Sep-09 08:32N 36°56' W 076°20'0 0.0
2014-Sep-09 07:30N 36°56' W 076°20'0 0.0
2014-Sep-09 06:32N 36°56' W 076°20'0 0.0
2014-Sep-09 05:33N 36°56' W 076°20'2 1.6
2014-Sep-09 04:33N 36°57' W 076°20'5 3.5
2014-Sep-09 03:15N 37°00' W 076°16'18 6.0
2014-Sep-09 00:19N 36°54' W 075°56'4 5.3
2014-Sep-08 23:31N 36°50' W 075°53'149 5.7
2014-Sep-07 21:28N 34°23' W 076°24'  

Dump ship's entire track history